sensor_id;sensor_type;location;lat;lon;timestamp;pressure;altitude;pressure_sealevel;temperature;humidity
62976;BME280;49071;0.000;0.000;2023-07-02T06:33:25;99895.91;;;24.45;
62976;BME280;49071;0.000;0.000;2023-07-02T06:36:26;99901.91;;;24.39;
62976;BME280;49071;0.000;0.000;2023-07-02T06:39:26;99905.34;;;24.25;
62976;BME280;49071;0.000;0.000;2023-07-02T06:42:26;99903.41;;;24.11;
62976;BME280;49071;0.000;0.000;2023-07-02T06:45:26;99921.31;;;24.01;
62976;BME280;49071;0.000;0.000;2023-07-02T06:48:26;99914.75;;;23.90;
62976;BME280;49071;0.000;0.000;2023-07-02T06:51:26;99914.44;;;23.85;
62976;BME280;49071;0.000;0.000;2023-07-02T06:54:29;99915.78;;;23.81;
62976;BME280;49071;0.000;0.000;2023-07-02T06:57:29;99919.44;;;23.80;
62976;BME280;49071;0.000;0.000;2023-07-02T07:00:31;99913.84;;;23.75;
62976;BME280;49071;0.000;0.000;2023-07-02T07:03:31;99916.47;;;23.75;
62976;BME280;49071;0.000;0.000;2023-07-02T07:06:31;99926.34;;;23.81;
62976;BME280;49071;0.000;0.000;2023-07-02T07:09:31;99921.53;;;23.84;
62976;BME280;49071;0.000;0.000;2023-07-02T07:12:31;99924.72;;;23.80;
62976;BME280;49071;0.000;0.000;2023-07-02T07:15:32;99922.56;;;23.75;
62976;BME280;49071;0.000;0.000;2023-07-02T07:18:34;99930.84;;;23.72;
62976;BME280;49071;0.000;0.000;2023-07-02T07:21:34;99933.00;;;23.69;
62976;BME280;49071;0.000;0.000;2023-07-02T07:24:34;99938.81;;;23.65;
62976;BME280;49071;0.000;0.000;2023-07-02T07:27:35;99934.66;;;23.70;
62976;BME280;49071;0.000;0.000;2023-07-02T07:30:35;99931.31;;;23.76;
62976;BME280;49071;0.000;0.000;2023-07-02T07:33:35;99931.63;;;23.81;
62976;BME280;49071;0.000;0.000;2023-07-02T07:36:36;99918.09;;;23.84;
62976;BME280;49071;0.000;0.000;2023-07-02T07:39:36;99908.19;;;23.86;
62976;BME280;49071;0.000;0.000;2023-07-02T07:42:37;99905.19;;;23.89;
62976;BME280;49071;0.000;0.000;2023-07-02T07:45:37;99916.22;;;23.92;
62976;BME280;49071;0.000;0.000;2023-07-02T07:48:37;99922.84;;;23.88;
62976;BME280;49071;0.000;0.000;2023-07-02T07:51:37;99913.47;;;23.86;
62976;BME280;49071;0.000;0.000;2023-07-02T07:54:38;99913.81;;;23.83;
62976;BME280;49071;0.000;0.000;2023-07-02T07:57:38;99911.31;;;23.81;
62976;BME280;49071;0.000;0.000;2023-07-02T08:00:38;99917.44;;;23.82;
62976;BME280;49071;0.000;0.000;2023-07-02T08:03:38;99907.53;;;23.84;
62976;BME280;49071;0.000;0.000;2023-07-02T08:06:38;99916.09;;;23.86;
62976;BME280;49071;0.000;0.000;2023-07-02T08:09:39;99909.00;;;23.86;
62976;BME280;49071;0.000;0.000;2023-07-02T08:12:39;99908.66;;;23.89;
62976;BME280;49071;0.000;0.000;2023-07-02T08:15:39;99908.13;;;23.94;
62976;BME280;49071;0.000;0.000;2023-07-02T08:18:39;99896.56;;;23.95;
62976;BME280;49071;0.000;0.000;2023-07-02T08:21:39;99900.03;;;23.95;
62976;BME280;49071;0.000;0.000;2023-07-02T08:24:39;99916.72;;;23.96;
62976;BME280;49071;0.000;0.000;2023-07-02T08:27:40;99917.72;;;23.95;
62976;BME280;49071;0.000;0.000;2023-07-02T08:30:40;99923.50;;;23.90;
62976;BME280;49071;0.000;0.000;2023-07-02T08:33:40;99916.41;;;23.91;
62976;BME280;49071;0.000;0.000;2023-07-02T08:36:40;99917.22;;;23.91;
62976;BME280;49071;0.000;0.000;2023-07-02T08:39:43;99921.50;;;23.92;
62976;BME280;49071;0.000;0.000;2023-07-02T08:42:44;99913.75;;;23.91;
62976;BME280;49071;0.000;0.000;2023-07-02T08:45:45;99929.94;;;23.88;
62976;BME280;49071;0.000;0.000;2023-07-02T08:48:46;99930.47;;;23.83;
62976;BME280;49071;0.000;0.000;2023-07-02T08:51:46;99934.28;;;23.81;
62976;BME280;49071;0.000;0.000;2023-07-02T08:54:46;99933.16;;;23.75;
62976;BME280;49071;0.000;0.000;2023-07-02T08:57:48;99945.38;;;23.76;
62976;BME280;49071;0.000;0.000;2023-07-02T09:04:05;99958.03;;;23.81;
62976;BME280;49071;0.000;0.000;2023-07-02T09:10:05;99964.97;;;23.82;
62976;BME280;49071;0.000;0.000;2023-07-02T09:13:07;99958.88;;;23.81;
62976;BME280;49071;0.000;0.000;2023-07-02T09:16:07;99963.69;;;23.78;
62976;BME280;49071;0.000;0.000;2023-07-02T09:19:08;99951.94;;;23.80;
62976;BME280;49071;0.000;0.000;2023-07-02T09:22:08;99968.97;;;23.78;
62976;BME280;49071;0.000;0.000;2023-07-02T09:25:11;99967.13;;;23.78;
62976;BME280;49071;0.000;0.000;2023-07-02T09:28:18;99968.97;;;23.78;
62976;BME280;49071;0.000;0.000;2023-07-02T09:31:19;99973.22;;;23.79;
62976;BME280;49071;0.000;0.000;2023-07-02T09:34:19;99973.22;;;23.79;
62976;BME280;49071;0.000;0.000;2023-07-02T09:37:19;99980.00;;;23.81;
62976;BME280;49071;0.000;0.000;2023-07-02T09:40:19;99988.25;;;23.78;
62976;BME280;49071;0.000;0.000;2023-07-02T09:43:20;99983.97;;;23.77;
62976;BME280;49071;0.000;0.000;2023-07-02T09:46:21;99984.81;;;23.78;
62976;BME280;49071;0.000;0.000;2023-07-02T09:49:21;99984.81;;;23.78;
62976;BME280;49071;0.000;0.000;2023-07-02T09:52:22;99990.44;;;23.75;
62976;BME280;49071;0.000;0.000;2023-07-02T09:55:23;99987.78;;;23.75;
62976;BME280;49071;0.000;0.000;2023-07-02T09:58:23;99992.91;;;23.76;
62976;BME280;49071;0.000;0.000;2023-07-02T10:01:23;99998.50;;;23.81;
62976;BME280;49071;0.000;0.000;2023-07-02T10:04:24;100002.59;;;23.84;
62976;BME280;49071;0.000;0.000;2023-07-02T10:07:28;100004.25;;;23.85;
62976;BME280;49071;0.000;0.000;2023-07-02T10:10:29;100012.03;;;23.78;
62976;BME280;49071;0.000;0.000;2023-07-02T10:13:29;100009.72;;;23.75;
62976;BME280;49071;0.000;0.000;2023-07-02T10:16:30;100016.84;;;23.75;
62976;BME280;49071;0.000;0.000;2023-07-02T10:19:32;100015.50;;;23.79;
62976;BME280;49071;0.000;0.000;2023-07-02T10:25:44;100013.19;;;23.76;
62976;BME280;49071;0.000;0.000;2023-07-02T10:28:57;100009.44;;;23.70;
62976;BME280;49071;0.000;0.000;2023-07-02T10:31:57;100007.28;;;23.66;
62976;BME280;49071;0.000;0.000;2023-07-02T10:34:58;99998.53;;;23.73;
62976;BME280;49071;0.000;0.000;2023-07-02T10:38:00;100011.41;;;23.69;
62976;BME280;49071;0.000;0.000;2023-07-02T10:41:00;100012.91;;;23.71;
62976;BME280;49071;0.000;0.000;2023-07-02T10:44:07;100013.72;;;23.71;
62976;BME280;49071;0.000;0.000;2023-07-02T10:47:07;100020.47;;;23.74;
62976;BME280;49071;0.000;0.000;2023-07-02T10:53:18;100007.22;;;23.82;
62976;BME280;49071;0.000;0.000;2023-07-02T10:56:18;100010.19;;;23.87;
62976;BME280;49071;0.000;0.000;2023-07-02T10:59:25;100009.19;;;23.88;
62976;BME280;49071;0.000;0.000;2023-07-02T11:02:25;100015.47;;;23.87;
62976;BME280;49071;0.000;0.000;2023-07-02T11:05:33;100015.81;;;23.84;
62976;BME280;49071;0.000;0.000;2023-07-02T11:08:36;100023.06;;;23.82;
62976;BME280;49071;0.000;0.000;2023-07-02T11:11:36;100016.16;;;23.81;
62976;BME280;49071;0.000;0.000;2023-07-02T11:14:36;100014.00;;;23.84;
62976;BME280;49071;0.000;0.000;2023-07-02T11:17:37;100014.47;;;23.88;
62976;BME280;49071;0.000;0.000;2023-07-02T11:20:38;100009.84;;;23.90;
62976;BME280;49071;0.000;0.000;2023-07-02T11:23:38;100010.53;;;23.84;
62976;BME280;49071;0.000;0.000;2023-07-02T11:26:39;100007.22;;;23.82;
62976;BME280;49071;0.000;0.000;2023-07-02T11:29:39;99998.69;;;23.80;
62976;BME280;49071;0.000;0.000;2023-07-02T11:32:55;99993.22;;;23.81;
62976;BME280;49071;0.000;0.000;2023-07-02T11:35:55;99993.06;;;23.83;
62976;BME280;49071;0.000;0.000;2023-07-02T11:38:55;100006.25;;;23.83;
62976;BME280;49071;0.000;0.000;2023-07-02T11:41:55;100000.63;;;23.86;
62976;BME280;49071;0.000;0.000;2023-07-02T11:44:56;100004.97;;;24.09;
62976;BME280;49071;0.000;0.000;2023-07-02T11:47:56;100008.75;;;24.14;
62976;BME280;49071;0.000;0.000;2023-07-02T11:50:56;100006.47;;;24.19;
62976;BME280;49071;0.000;0.000;2023-07-02T11:53:56;100020.50;;;24.20;
62976;BME280;49071;0.000;0.000;2023-07-02T11:56:56;100001.00;;;24.21;
62976;BME280;49071;0.000;0.000;2023-07-02T11:59:57;100003.94;;;24.26;
62976;BME280;49071;0.000;0.000;2023-07-02T12:02:57;100012.03;;;24.24;
62976;BME280;49071;0.000;0.000;2023-07-02T12:05:58;100013.72;;;24.17;
62976;BME280;49071;0.000;0.000;2023-07-02T12:08:58;99997.19;;;24.15;
62976;BME280;49071;0.000;0.000;2023-07-02T12:11:58;99998.53;;;24.11;
62976;BME280;49071;0.000;0.000;2023-07-02T12:14:58;99991.59;;;24.10;
62976;BME280;49071;0.000;0.000;2023-07-02T12:17:58;99998.06;;;24.08;
62976;BME280;49071;0.000;0.000;2023-07-02T12:20:58;99997.22;;;24.07;
62976;BME280;49071;0.000;0.000;2023-07-02T12:23:59;99989.31;;;24.07;
62976;BME280;49071;0.000;0.000;2023-07-02T12:26:59;99998.88;;;24.08;
62976;BME280;49071;0.000;0.000;2023-07-02T12:29:59;99999.88;;;24.07;
62976;BME280;49071;0.000;0.000;2023-07-02T12:32:59;100007.81;;;24.07;
62976;BME280;49071;0.000;0.000;2023-07-02T12:35:59;100001.69;;;24.07;
62976;BME280;49071;0.000;0.000;2023-07-02T12:39:00;99992.91;;;24.06;
62976;BME280;49071;0.000;0.000;2023-07-02T12:42:00;100004.50;;;24.05;
62976;BME280;49071;0.000;0.000;2023-07-02T12:45:00;100006.97;;;24.07;
62976;BME280;49071;0.000;0.000;2023-07-02T12:48:00;99993.94;;;24.05;
62976;BME280;49071;0.000;0.000;2023-07-02T12:51:00;99999.88;;;24.07;
62976;BME280;49071;0.000;0.000;2023-07-02T12:54:01;100000.03;;;24.06;
62976;BME280;49071;0.000;0.000;2023-07-02T12:57:01;100006.31;;;24.05;
62976;BME280;49071;0.000;0.000;2023-07-02T13:00:01;99985.34;;;24.03;
62976;BME280;49071;0.000;0.000;2023-07-02T13:03:01;100006.47;;;24.03;
62976;BME280;49071;0.000;0.000;2023-07-02T13:06:02;100006.47;;;24.03;
62976;BME280;49071;0.000;0.000;2023-07-02T13:09:02;100002.84;;;24.04;
62976;BME280;49071;0.000;0.000;2023-07-02T13:12:03;100014.25;;;24.05;
62976;BME280;49071;0.000;0.000;2023-07-02T13:15:03;99995.75;;;24.05;
62976;BME280;49071;0.000;0.000;2023-07-02T13:18:04;100020.34;;;24.05;
62976;BME280;49071;0.000;0.000;2023-07-02T13:21:04;100009.78;;;24.05;
62976;BME280;49071;0.000;0.000;2023-07-02T13:24:04;100003.69;;;24.05;
62976;BME280;49071;0.000;0.000;2023-07-02T13:27:05;100016.91;;;24.05;
62976;BME280;49071;0.000;0.000;2023-07-02T13:30:07;100017.72;;;24.05;
62976;BME280;49071;0.000;0.000;2023-07-02T13:33:07;100015.06;;;24.05;
62976;BME280;49071;0.000;0.000;2023-07-02T13:36:07;100030.09;;;24.05;
62976;BME280;49071;0.000;0.000;2023-07-02T13:39:07;100039.66;;;24.06;
62976;BME280;49071;0.000;0.000;2023-07-02T13:42:07;100034.56;;;24.04;
62976;BME280;49071;0.000;0.000;2023-07-02T13:45:08;100040.69;;;24.05;
62976;BME280;49071;0.000;0.000;2023-07-02T13:48:09;100039.84;;;24.04;
62976;BME280;49071;0.000;0.000;2023-07-02T13:51:09;100038.03;;;24.05;
62976;BME280;49071;0.000;0.000;2023-07-02T13:54:11;100025.81;;;24.04;
62976;BME280;49071;0.000;0.000;2023-07-02T13:57:12;100035.53;;;24.03;
62976;BME280;49071;0.000;0.000;2023-07-02T14:00:12;100032.91;;;24.03;
62976;BME280;49071;0.000;0.000;2023-07-02T14:03:12;100035.53;;;24.03;
62976;BME280;49071;0.000;0.000;2023-07-02T14:06:13;100029.28;;;24.04;
62976;BME280;49071;0.000;0.000;2023-07-02T14:09:13;100031.09;;;24.04;
62976;BME280;49071;0.000;0.000;2023-07-02T14:12:13;100033.75;;;24.04;
62976;BME280;49071;0.000;0.000;2023-07-02T14:15:13;100035.38;;;24.05;
62976;BME280;49071;0.000;0.000;2023-07-02T14:18:14;100045.13;;;24.04;
62976;BME280;49071;0.000;0.000;2023-07-02T14:21:14;100050.44;;;24.04;
62976;BME280;49071;0.000;0.000;2023-07-02T14:24:14;100057.34;;;24.05;
62976;BME280;49071;0.000;0.000;2023-07-02T14:27:14;100050.44;;;24.04;
62976;BME280;49071;0.000;0.000;2023-07-02T14:30:14;100052.06;;;24.05;
62976;BME280;49071;0.000;0.000;2023-07-02T14:33:15;100058.34;;;24.04;
62976;BME280;49071;0.000;0.000;2023-07-02T14:36:15;100064.28;;;24.06;
62976;BME280;49071;0.000;0.000;2023-07-02T14:39:15;100056.34;;;24.06;
62976;BME280;49071;0.000;0.000;2023-07-02T14:42:15;100060.00;;;24.05;
62976;BME280;49071;0.000;0.000;2023-07-02T14:45:15;100066.91;;;24.06;
62976;BME280;49071;0.000;0.000;2023-07-02T14:48:16;100063.44;;;24.06;
62976;BME280;49071;0.000;0.000;2023-07-02T14:51:17;100048.41;;;24.06;
62976;BME280;49071;0.000;0.000;2023-07-02T14:54:17;100064.28;;;24.06;
62976;BME280;49071;0.000;0.000;2023-07-02T14:57:17;100070.56;;;24.05;
62976;BME280;49071;0.000;0.000;2023-07-02T15:00:19;100067.75;;;24.07;
62976;BME280;49071;0.000;0.000;2023-07-02T15:03:20;100077.31;;;24.08;
62976;BME280;49071;0.000;0.000;2023-07-02T15:06:22;100081.78;;;24.07;
62976;BME280;49071;0.000;0.000;2023-07-02T15:09:22;100065.94;;;24.07;
62976;BME280;49071;0.000;0.000;2023-07-02T15:12:22;100073.03;;;24.07;
62976;BME280;49071;0.000;0.000;2023-07-02T15:15:22;100074.84;;;24.06;
62976;BME280;49071;0.000;0.000;2023-07-02T15:18:22;100077.47;;;24.06;
62976;BME280;49071;0.000;0.000;2023-07-02T15:21:23;100078.34;;;24.07;
62976;BME280;49071;0.000;0.000;2023-07-02T15:24:24;100085.41;;;24.06;
62976;BME280;49071;0.000;0.000;2023-07-02T15:27:24;100079.16;;;24.07;
62976;BME280;49071;0.000;0.000;2023-07-02T15:30:24;100081.78;;;24.07;
62976;BME280;49071;0.000;0.000;2023-07-02T15:33:25;100089.72;;;24.07;
62976;BME280;49071;0.000;0.000;2023-07-02T15:36:26;100093.19;;;24.08;
62976;BME280;49071;0.000;0.000;2023-07-02T15:39:27;100092.38;;;24.07;
62976;BME280;49071;0.000;0.000;2023-07-02T15:42:32;100091.34;;;24.08;
62976;BME280;49071;0.000;0.000;2023-07-02T15:45:32;100081.59;;;24.09;
62976;BME280;49071;0.000;0.000;2023-07-02T15:48:32;100098.28;;;24.09;
62976;BME280;49071;0.000;0.000;2023-07-02T15:51:33;100100.09;;;24.09;
62976;BME280;49071;0.000;0.000;2023-07-02T15:54:39;100101.78;;;24.10;
62976;BME280;49071;0.000;0.000;2023-07-02T15:57:39;100090.34;;;24.09;
62976;BME280;49071;0.000;0.000;2023-07-02T16:00:39;100106.22;;;24.09;
62976;BME280;49071;0.000;0.000;2023-07-02T16:03:39;100097.47;;;24.09;
62976;BME280;49071;0.000;0.000;2023-07-02T16:06:40;100100.91;;;24.09;
62976;BME280;49071;0.000;0.000;2023-07-02T16:09:40;100127.34;;;24.09;
62976;BME280;49071;0.000;0.000;2023-07-02T16:12:40;100119.41;;;24.09;
62976;BME280;49071;0.000;0.000;2023-07-02T16:15:41;100110.69;;;24.09;
62976;BME280;49071;0.000;0.000;2023-07-02T16:18:42;100113.16;;;24.10;
62976;BME280;49071;0.000;0.000;2023-07-02T16:21:42;100105.38;;;24.09;
62976;BME280;49071;0.000;0.000;2023-07-02T16:24:42;100098.28;;;24.09;
62976;BME280;49071;0.000;0.000;2023-07-02T16:27:43;100102.75;;;24.09;
62976;BME280;49071;0.000;0.000;2023-07-02T16:30:43;100111.50;;;24.09;
62976;BME280;49071;0.000;0.000;2023-07-02T16:33:43;100105.25;;;24.10;
62976;BME280;49071;0.000;0.000;2023-07-02T16:36:44;100105.88;;;24.12;
62976;BME280;49071;0.000;0.000;2023-07-02T16:39:44;100114.13;;;24.09;
62976;BME280;49071;0.000;0.000;2023-07-02T16:42:44;100120.09;;;24.11;
62976;BME280;49071;0.000;0.000;2023-07-02T16:45:50;100117.63;;;24.10;
62976;BME280;49071;0.000;0.000;2023-07-02T16:48:51;100118.44;;;24.10;
62976;BME280;49071;0.000;0.000;2023-07-02T16:51:51;100127.34;;;24.09;
62976;BME280;49071;0.000;0.000;2023-07-02T16:54:52;100127.34;;;24.09;
62976;BME280;49071;0.000;0.000;2023-07-02T16:57:52;100127.34;;;24.09;
62976;BME280;49071;0.000;0.000;2023-07-02T17:00:53;100122.91;;;24.10;
62976;BME280;49071;0.000;0.000;2023-07-02T17:03:58;100116.78;;;24.09;
62976;BME280;49071;0.000;0.000;2023-07-02T17:06:59;100126.22;;;24.04;
62976;BME280;49071;0.000;0.000;2023-07-02T17:09:59;100138.59;;;24.03;
62976;BME280;49071;0.000;0.000;2023-07-02T17:12:59;100145.88;;;24.01;
62976;BME280;49071;0.000;0.000;2023-07-02T17:16:00;100132.69;;;24.01;
62976;BME280;49071;0.000;0.000;2023-07-02T17:19:00;100146.03;;;24.00;
62976;BME280;49071;0.000;0.000;2023-07-02T17:22:01;100153.16;;;23.99;
62976;BME280;49071;0.000;0.000;2023-07-02T17:25:02;100153.81;;;23.94;
62976;BME280;49071;0.000;0.000;2023-07-02T17:28:02;100151.84;;;23.96;
62976;BME280;49071;0.000;0.000;2023-07-02T17:31:03;100149.88;;;23.98;
62976;BME280;49071;0.000;0.000;2023-07-02T17:34:03;100153.00;;;24.01;
62976;BME280;49071;0.000;0.000;2023-07-02T17:37:04;100156.47;;;24.01;
62976;BME280;49071;0.000;0.000;2023-07-02T17:40:06;100155.31;;;24.04;
62976;BME280;49071;0.000;0.000;2023-07-02T17:43:06;100158.56;;;24.06;
62976;BME280;49071;0.000;0.000;2023-07-02T17:46:07;100165.88;;;24.04;
62976;BME280;49071;0.000;0.000;2023-07-02T17:49:07;100163.03;;;24.05;
62976;BME280;49071;0.000;0.000;2023-07-02T17:52:08;100166.03;;;24.02;
62976;BME280;49071;0.000;0.000;2023-07-02T17:55:09;100168.66;;;24.02;
62976;BME280;49071;0.000;0.000;2023-07-02T17:58:09;100166.22;;;24.01;
62976;BME280;49071;0.000;0.000;2023-07-02T18:01:09;100172.66;;;23.98;
62976;BME280;49071;0.000;0.000;2023-07-02T18:04:10;100179.41;;;24.01;
62976;BME280;49071;0.000;0.000;2023-07-02T18:07:11;100181.06;;;24.02;
62976;BME280;49071;0.000;0.000;2023-07-02T18:10:11;100182.22;;;23.99;
62976;BME280;49071;0.000;0.000;2023-07-02T18:13:12;100185.53;;;24.01;
62976;BME280;49071;0.000;0.000;2023-07-02T18:16:12;100184.53;;;24.02;
62976;BME280;49071;0.000;0.000;2023-07-02T18:19:13;100175.59;;;24.03;
62976;BME280;49071;0.000;0.000;2023-07-02T18:22:13;100187.00;;;24.04;
62976;BME280;49071;0.000;0.000;2023-07-02T18:25:13;100179.22;;;24.02;
62976;BME280;49071;0.000;0.000;2023-07-02T18:28:13;100183.22;;;23.98;
62976;BME280;49071;0.000;0.000;2023-07-02T18:31:14;100188.16;;;24.01;
62976;BME280;49071;0.000;0.000;2023-07-02T18:34:14;100182.22;;;23.99;
62976;BME280;49071;0.000;0.000;2023-07-02T18:37:15;100186.81;;;24.05;
62976;BME280;49071;0.000;0.000;2023-07-02T18:40:15;100183.84;;;24.08;
62976;BME280;49071;0.000;0.000;2023-07-02T18:43:21;100191.63;;;24.10;
62976;BME280;49071;0.000;0.000;2023-07-02T18:46:21;100200.72;;;24.07;
62976;BME280;49071;0.000;0.000;2023-07-02T18:49:23;100193.13;;;24.04;
62976;BME280;49071;0.000;0.000;2023-07-02T18:52:24;100207.81;;;24.07;
62976;BME280;49071;0.000;0.000;2023-07-02T18:55:24;100197.88;;;24.09;
62976;BME280;49071;0.000;0.000;2023-07-02T18:58:24;100200.53;;;24.09;
62976;BME280;49071;0.000;0.000;2023-07-02T19:01:25;100197.72;;;24.10;
62976;BME280;49071;0.000;0.000;2023-07-02T19:04:25;100205.00;;;24.08;
62976;BME280;49071;0.000;0.000;2023-07-02T19:07:26;100205.81;;;24.09;
62976;BME280;49071;0.000;0.000;2023-07-02T19:10:26;100208.63;;;24.07;
62976;BME280;49071;0.000;0.000;2023-07-02T19:13:26;100211.09;;;24.09;
62976;BME280;49071;0.000;0.000;2023-07-02T19:16:26;100220.19;;;24.06;
62976;BME280;49071;0.000;0.000;2023-07-02T19:19:27;100227.78;;;24.09;
62976;BME280;49071;0.000;0.000;2023-07-02T19:22:27;100228.09;;;24.06;
62976;BME280;49071;0.000;0.000;2023-07-02T19:25:27;100234.56;;;24.04;
62976;BME280;49071;0.000;0.000;2023-07-02T19:28:28;100234.41;;;24.05;
62976;BME280;49071;0.000;0.000;2023-07-02T19:31:28;100230.75;;;24.06;
62976;BME280;49071;0.000;0.000;2023-07-02T19:34:28;100230.59;;;24.08;
62976;BME280;49071;0.000;0.000;2023-07-02T19:37:29;100228.44;;;24.11;
62976;BME280;49071;0.000;0.000;2023-07-02T19:40:29;100233.06;;;24.09;
62976;BME280;49071;0.000;0.000;2023-07-02T19:43:29;100241.84;;;24.10;
62976;BME280;49071;0.000;0.000;2023-07-02T19:46:29;100238.34;;;24.09;
62976;BME280;49071;0.000;0.000;2023-07-02T19:49:29;100246.44;;;24.08;
62976;BME280;49071;0.000;0.000;2023-07-02T19:52:30;100246.59;;;24.06;
62976;BME280;49071;0.000;0.000;2023-07-02T19:55:30;100252.06;;;24.05;
62976;BME280;49071;0.000;0.000;2023-07-02T19:58:33;100246.28;;;24.01;
62976;BME280;49071;0.000;0.000;2023-07-02T20:01:33;100258.50;;;24.02;
62976;BME280;49071;0.000;0.000;2023-07-02T20:04:33;100249.56;;;24.03;
62976;BME280;49071;0.000;0.000;2023-07-02T20:07:34;100258.34;;;24.04;
62976;BME280;49071;0.000;0.000;2023-07-02T20:10:34;100255.53;;;24.05;
62976;BME280;49071;0.000;0.000;2023-07-02T20:13:34;100254.38;;;24.08;
62976;BME280;49071;0.000;0.000;2023-07-02T20:16:35;100257.16;;;24.06;
62976;BME280;49071;0.000;0.000;2023-07-02T20:19:36;100261.50;;;24.07;
